Time;durP1;ratioP1;P1;durP2;ratioP2;P2;SDS_P1;SDS_P2;PMS_P1;PMS_P2;Temp;Humidity;BMP_temperature;BMP_pressure;BME280_temperature;BME280_humidity;BME280_pressure;Samples;Min_cycle;Max_cycle;Signal;HPM_P1;HPM_P2
2023/08/07 00:01:04;;;;;;;1.83;1.17;;;;;;;;;;5840222;28;20417;-83
2023/08/07 00:03:55;;;;;;;0.80;0.60;;;;;;;;;;5831036;28;20046;-83
2023/08/07 00:06:46;;;;;;;1.65;1.23;;;;;;;;;;5841254;28;20116;-83
2023/08/07 00:09:37;;;;;;;0.40;0.40;;;;;;;;;;5841433;28;20041;-83
2023/08/07 00:12:28;;;;;;;0.68;0.63;;;;;;;;;;5841574;28;20499;-83
2023/08/07 00:15:19;;;;;;;0.68;0.60;;;;;;;;;;5840166;28;20050;-83
2023/08/07 00:18:10;;;;;;;1.25;0.77;;;;;;;;;;5841334;28;20489;-83
2023/08/07 00:21:00;;;;;;;0.55;0.45;;;;;;;;;;5841707;28;20046;-83
2023/08/07 00:23:51;;;;;;;1.50;1.00;;;;;;;;;;5841722;28;20453;-83
2023/08/07 00:26:42;;;;;;;0.85;0.43;;;;;;;;;;5841403;28;20056;-84
2023/08/07 00:29:33;;;;;;;0.80;0.70;;;;;;;;;;5841521;28;20037;-83
2023/08/07 00:32:24;;;;;;;0.20;0.20;;;;;;;;;;5841493;28;20397;-83
2023/08/07 00:35:15;;;;;;;0.65;0.50;;;;;;;;;;5841022;28;20050;-86
2023/08/07 00:38:05;;;;;;;0.80;0.75;;;;;;;;;;5839887;28;20050;-83
2023/08/07 00:40:56;;;;;;;1.08;0.90;;;;;;;;;;5841760;28;20409;-83
2023/08/07 00:43:47;;;;;;;0.95;0.82;;;;;;;;;;5841273;28;20060;-83
2023/08/07 00:46:41;;;;;;;1.95;0.73;;;;;;;;;;5840838;28;20041;-84
2023/08/07 00:49:33;;;;;;;1.38;0.85;;;;;;;;;;5841009;28;20485;-84
2023/08/07 00:52:24;;;;;;;1.75;0.95;;;;;;;;;;5839640;28;20045;-83
2023/08/07 00:55:15;;;;;;;0.85;0.57;;;;;;;;;;5840007;28;20053;-83
2023/08/07 00:58:06;;;;;;;0.60;0.60;;;;;;;;;;5840601;28;20046;-83
2023/08/07 01:00:57;;;;;;;2.53;1.15;;;;;;;;;;5841197;28;20050;-84
2023/08/07 01:03:48;;;;;;;1.98;1.42;;;;;;;;;;5841061;28;20137;-84
2023/08/07 01:06:40;;;;;;;0.82;0.82;;;;;;;;;;5839590;28;20042;-85
2023/08/07 01:09:32;;;;;;;1.40;1.20;;;;;;;;;;5839390;28;20157;-83
2023/08/07 01:12:33;;;;;;;1.38;1.00;;;;;;;;;;5841352;28;20048;-82
2023/08/07 01:15:32;;;;;;;1.13;0.90;;;;;;;;;;5843568;28;20042;-84
2023/08/07 01:18:23;;;;;;;3.03;1.23;;;;;;;;;;5843656;28;20541;-83
2023/08/07 01:21:21;;;;;;;1.05;0.90;;;;;;;;;;5843739;28;20137;-83
2023/08/07 01:24:11;;;;;;;3.13;1.50;;;;;;;;;;5843654;28;20129;-84
2023/08/07 01:27:17;;;;;;;3.10;1.70;;;;;;;;;;5844575;28;20044;-84
2023/08/07 01:30:30;;;;;;;7.65;2.45;;;;;;;;;;5844515;28;20413;-85
2023/08/07 01:33:34;;;;;;;1.92;1.27;;;;;;;;;;5829042;28;20045;-83
2023/08/07 01:36:28;;;;;;;1.58;1.20;;;;;;;;;;5843209;28;20371;-85
2023/08/07 01:39:21;;;;;;;3.45;1.67;;;;;;;;;;5827290;28;20046;-84
2023/08/07 01:42:11;;;;;;;3.15;1.98;;;;;;;;;;5842932;28;20049;-84
2023/08/07 01:45:05;;;;;;;2.08;1.88;;;;;;;;;;5844083;28;20061;-83
2023/08/07 01:47:56;;;;;;;1.88;1.63;;;;;;;;;;5844379;28;20056;-85
2023/08/07 01:50:47;;;;;;;2.10;1.70;;;;;;;;;;5843180;28;20483;-84
2023/08/07 01:53:38;;;;;;;2.03;1.58;;;;;;;;;;5844172;28;20500;-85
2023/08/07 01:56:28;;;;;;;2.05;1.60;;;;;;;;;;5843843;28;20053;-84
2023/08/07 01:59:19;;;;;;;2.53;2.30;;;;;;;;;;5843819;28;20056;-84
2023/08/07 02:02:10;;;;;;;11.05;2.03;;;;;;;;;;5843777;28;20046;-84
2023/08/07 02:05:01;;;;;;;1.48;1.33;;;;;;;;;;5844453;28;20624;-84
2023/08/07 02:07:52;;;;;;;5.38;2.33;;;;;;;;;;5844040;28;20056;-84
2023/08/07 02:10:43;;;;;;;2.65;1.35;;;;;;;;;;5843687;28;20416;-85
2023/08/07 02:13:34;;;;;;;2.53;2.13;;;;;;;;;;5843703;28;20048;-84
2023/08/07 02:16:25;;;;;;;2.63;1.85;;;;;;;;;;5843363;28;20173;-85
2023/08/07 02:19:16;;;;;;;1.98;1.67;;;;;;;;;;5843446;28;20638;-84
2023/08/07 02:22:06;;;;;;;1.48;1.33;;;;;;;;;;5843424;28;20038;-84
2023/08/07 02:24:57;;;;;;;4.00;1.48;;;;;;;;;;5843860;28;20819;-84
2023/08/07 02:27:48;;;;;;;1.55;1.45;;;;;;;;;;5843223;28;20076;-83
2023/08/07 02:30:39;;;;;;;1.92;1.13;;;;;;;;;;5843214;28;20042;-84
2023/08/07 02:33:30;;;;;;;2.42;1.73;;;;;;;;;;5843256;28;20042;-84
2023/08/07 02:36:21;;;;;;;3.33;2.00;;;;;;;;;;5842750;28;20052;-83
2023/08/07 02:39:14;;;;;;;6.22;2.30;;;;;;;;;;5842971;28;20042;-83
2023/08/07 02:42:05;;;;;;;1.83;1.65;;;;;;;;;;5843022;28;20049;-82
2023/08/07 02:44:56;;;;;;;3.90;2.65;;;;;;;;;;5843417;28;20050;-84
2023/08/07 02:47:47;;;;;;;3.90;2.00;;;;;;;;;;5842807;28;20052;-84
2023/08/07 02:50:38;;;;;;;2.78;1.88;;;;;;;;;;5842969;28;20115;-84
2023/08/07 02:53:29;;;;;;;2.83;1.88;;;;;;;;;;5842776;28;20493;-84
2023/08/07 02:56:19;;;;;;;1.60;1.50;;;;;;;;;;5842587;28;20437;-83
2023/08/07 02:59:10;;;;;;;3.17;2.65;;;;;;;;;;5841223;28;20061;-85
2023/08/07 03:02:01;;;;;;;8.95;2.15;;;;;;;;;;5842456;28;20085;-85
2023/08/07 03:04:52;;;;;;;3.55;2.38;;;;;;;;;;5842907;28;20046;-84
2023/08/07 03:07:43;;;;;;;4.90;2.95;;;;;;;;;;5842331;28;20121;-84
2023/08/07 03:10:33;;;;;;;11.98;2.50;;;;;;;;;;5842349;28;20050;-84
2023/08/07 03:13:25;;;;;;;2.33;1.75;;;;;;;;;;5842518;28;20042;-83
2023/08/07 03:16:16;;;;;;;3.72;2.58;;;;;;;;;;5842309;28;20442;-84
2023/08/07 03:19:07;;;;;;;7.25;2.35;;;;;;;;;;5842019;28;20054;-83
2023/08/07 03:21:57;;;;;;;2.53;2.33;;;;;;;;;;5841023;28;20061;-83
2023/08/07 03:24:48;;;;;;;2.40;2.08;;;;;;;;;;5841965;28;20053;-85
2023/08/07 03:27:39;;;;;;;2.95;2.00;;;;;;;;;;5841971;28;20132;-84
2023/08/07 03:30:30;;;;;;;2.05;1.73;;;;;;;;;;5840953;28;20045;-83
2023/08/07 03:33:21;;;;;;;3.03;2.20;;;;;;;;;;5842114;28;20049;-85
2023/08/07 03:36:12;;;;;;;1.52;1.25;;;;;;;;;;5841229;28;20056;-83
2023/08/07 03:39:03;;;;;;;1.83;1.23;;;;;;;;;;5841914;28;20046;-83
2023/08/07 03:41:54;;;;;;;7.07;1.95;;;;;;;;;;5842259;28;20048;-84
2023/08/07 03:44:45;;;;;;;3.03;1.83;;;;;;;;;;5841766;28;20038;-84
2023/08/07 03:47:35;;;;;;;15.60;2.03;;;;;;;;;;5841632;28;20048;-84
2023/08/07 03:50:26;;;;;;;2.80;1.88;;;;;;;;;;5841709;28;20040;-85
2023/08/07 03:53:17;;;;;;;2.50;1.65;;;;;;;;;;5841875;28;20046;-83
2023/08/07 03:56:08;;;;;;;1.67;1.50;;;;;;;;;;5841646;28;20108;-84
2023/08/07 03:58:59;;;;;;;2.13;1.70;;;;;;;;;;5842103;28;20052;-84
2023/08/07 04:01:50;;;;;;;2.65;2.25;;;;;;;;;;5841947;28;20037;-83
2023/08/07 04:04:40;;;;;;;1.63;1.52;;;;;;;;;;5841397;28;20187;-83
2023/08/07 04:07:31;;;;;;;2.35;1.80;;;;;;;;;;5841402;28;20048;-83
2023/08/07 04:10:22;;;;;;;2.15;1.45;;;;;;;;;;5841849;28;20132;-83
2023/08/07 04:13:13;;;;;;;2.65;1.90;;;;;;;;;;5841579;28;20057;-83
2023/08/07 04:16:04;;;;;;;1.95;1.63;;;;;;;;;;5841305;28;20046;-83
2023/08/07 04:18:55;;;;;;;2.92;2.50;;;;;;;;;;5841775;28;20050;-84
2023/08/07 04:21:46;;;;;;;1.23;1.15;;;;;;;;;;5840230;28;20444;-83
2023/08/07 04:24:37;;;;;;;2.50;1.00;;;;;;;;;;5841251;28;20038;-84
2023/08/07 04:27:28;;;;;;;1.33;1.17;;;;;;;;;;5841638;28;20044;-82
2023/08/07 04:30:18;;;;;;;1.42;1.30;;;;;;;;;;5841329;28;20054;-84
2023/08/07 04:33:09;;;;;;;1.55;1.45;;;;;;;;;;5841131;28;20049;-84
2023/08/07 04:36:00;;;;;;;2.17;1.75;;;;;;;;;;5841608;28;20045;-84
2023/08/07 04:38:51;;;;;;;1.48;1.02;;;;;;;;;;5841464;28;20046;-83
2023/08/07 04:41:42;;;;;;;1.77;0.90;;;;;;;;;;5840883;28;20049;-83
2023/08/07 04:44:33;;;;;;;14.48;1.83;;;;;;;;;;5841089;28;20042;-83
2023/08/07 04:47:23;;;;;;;1.63;1.50;;;;;;;;;;5842384;28;20054;-84
2023/08/07 04:50:14;;;;;;;1.08;0.90;;;;;;;;;;5845442;28;20049;-83
2023/08/07 04:53:05;;;;;;;1.60;0.55;;;;;;;;;;5845187;28;20042;-83
2023/08/07 04:55:56;;;;;;;1.92;1.38;;;;;;;;;;5845890;28;20401;-83
2023/08/07 04:58:47;;;;;;;1.65;1.08;;;;;;;;;;5845562;28;20053;-84
2023/08/07 05:01:38;;;;;;;1.00;0.90;;;;;;;;;;5844974;28;20517;-86
2023/08/07 05:04:29;;;;;;;1.85;0.90;;;;;;;;;;5843957;28;20049;-84
2023/08/07 05:07:19;;;;;;;0.98;0.90;;;;;;;;;;5845184;28;20050;-84
2023/08/07 05:10:10;;;;;;;1.83;1.40;;;;;;;;;;5844968;28;20046;-83
2023/08/07 05:13:01;;;;;;;1.75;1.27;;;;;;;;;;5845046;28;20046;-85
2023/08/07 05:15:52;;;;;;;3.03;0.85;;;;;;;;;;5845107;28;20477;-83
2023/08/07 05:18:42;;;;;;;0.93;0.90;;;;;;;;;;5844909;28;20042;-85
2023/08/07 05:21:33;;;;;;;1.48;1.17;;;;;;;;;;5844796;28;20485;-83
2023/08/07 05:24:24;;;;;;;1.30;0.93;;;;;;;;;;5844558;28;20046;-83
2023/08/07 05:27:15;;;;;;;1.45;1.15;;;;;;;;;;5844710;28;20050;-84
2023/08/07 05:30:06;;;;;;;1.10;0.98;;;;;;;;;;5844677;28;20506;-83
2023/08/07 05:32:57;;;;;;;2.33;1.05;;;;;;;;;;5845046;28;20454;-83
2023/08/07 05:35:49;;;;;;;0.50;0.50;;;;;;;;;;5844374;28;20042;-84
2023/08/07 05:38:40;;;;;;;0.80;0.52;;;;;;;;;;5842854;28;20053;-83
2023/08/07 05:41:31;;;;;;;0.45;0.30;;;;;;;;;;5844491;28;20038;-83
2023/08/07 05:44:26;;;;;;;0.52;0.50;;;;;;;;;;5844225;28;20053;-84
2023/08/07 05:47:16;;;;;;;0.38;0.38;;;;;;;;;;5843933;28;20046;-85
2023/08/07 05:50:08;;;;;;;0.60;0.60;;;;;;;;;;5844084;28;20053;-83
2023/08/07 05:52:59;;;;;;;1.00;0.77;;;;;;;;;;5844474;28;20053;-84
2023/08/07 05:55:50;;;;;;;3.33;1.00;;;;;;;;;;5844191;28;20038;-84
2023/08/07 05:58:41;;;;;;;0.52;0.50;;;;;;;;;;5842013;28;20046;-83
2023/08/07 06:01:31;;;;;;;3.80;0.35;;;;;;;;;;5843573;28;20426;-83
2023/08/07 06:04:22;;;;;;;0.57;0.40;;;;;;;;;;5843630;28;20052;-83
2023/08/07 06:07:13;;;;;;;0.50;0.50;;;;;;;;;;5843554;28;20177;-83
2023/08/07 06:10:05;;;;;;;1.60;0.47;;;;;;;;;;5843674;28;20054;-83
2023/08/07 06:12:56;;;;;;;0.93;0.30;;;;;;;;;;5842799;28;20148;-84
2023/08/07 06:15:47;;;;;;;1.00;0.60;;;;;;;;;;5843496;28;20060;-84
2023/08/07 06:18:38;;;;;;;0.13;0.13;;;;;;;;;;5843503;28;20049;-84
2023/08/07 06:21:29;;;;;;;1.33;0.40;;;;;;;;;;5841921;28;20048;-83
2023/08/07 06:24:20;;;;;;;0.25;0.25;;;;;;;;;;5843339;28;20050;-84
2023/08/07 06:27:10;;;;;;;0.50;0.40;;;;;;;;;;5843202;28;20041;-82
2023/08/07 06:30:01;;;;;;;0.20;0.20;;;;;;;;;;5843738;28;20053;-83
2023/08/07 06:32:52;;;;;;;0.60;0.30;;;;;;;;;;5843315;28;20096;-82
2023/08/07 06:35:43;;;;;;;2.53;0.57;;;;;;;;;;5843304;28;20046;-83
2023/08/07 06:38:34;;;;;;;0.45;0.25;;;;;;;;;;5843264;28;20667;-84
2023/08/07 06:41:25;;;;;;;0.30;0.30;;;;;;;;;;5841578;28;20398;-83
2023/08/07 06:44:15;;;;;;;1.25;0.40;;;;;;;;;;5842968;28;20523;-84
2023/08/07 06:47:08;;;;;;;0.45;0.30;;;;;;;;;;5842538;28;20049;-84
2023/08/07 06:50:00;;;;;;;0.90;0.30;;;;;;;;;;5843181;28;20041;-83
2023/08/07 06:52:51;;;;;;;0.20;0.20;;;;;;;;;;5843083;28;20037;-83
2023/08/07 06:55:42;;;;;;;0.30;0.30;;;;;;;;;;5842559;28;20042;-83
2023/08/07 06:58:33;;;;;;;0.80;0.60;;;;;;;;;;5841362;28;20050;-84
2023/08/07 07:01:25;;;;;;;0.50;0.50;;;;;;;;;;5842587;28;20489;-83
2023/08/07 07:04:16;;;;;;;1.08;0.30;;;;;;;;;;5842678;28;20119;-83
2023/08/07 07:07:07;;;;;;;0.00;0.00;;;;;;;;;;5842473;28;20134;-83
2023/08/07 07:10:00;;;;;;;0.38;0.38;;;;;;;;;;5841887;28;20042;-83
2023/08/07 07:12:52;;;;;;;0.15;0.15;;;;;;;;;;5818044;28;20050;-85
2023/08/07 07:15:42;;;;;;;0.20;0.20;;;;;;;;;;5818828;28;20046;-83
2023/08/07 07:18:34;;;;;;;0.20;0.20;;;;;;;;;;5819361;28;20255;-83
2023/08/07 07:21:25;;;;;;;0.50;0.47;;;;;;;;;;5819258;28;20121;-85
2023/08/07 07:24:16;;;;;;;0.13;0.13;;;;;;;;;;5819393;28;20056;-85
2023/08/07 07:27:07;;;;;;;0.20;0.20;;;;;;;;;;5819142;28;20050;-86
2023/08/07 07:29:58;;;;;;;0.47;0.47;;;;;;;;;;5818772;28;20049;-83
2023/08/07 07:32:50;;;;;;;0.10;0.10;;;;;;;;;;5819280;28;20077;-84
2023/08/07 07:35:41;;;;;;;0.20;0.20;;;;;;;;;;5819411;28;20154;-84
2023/08/07 07:38:31;;;;;;;0.30;0.28;;;;;;;;;;5819053;28;20089;-83
2023/08/07 07:41:23;;;;;;;0.10;0.10;;;;;;;;;;5818924;28;20042;-84
2023/08/07 07:44:14;;;;;;;0.32;0.32;;;;;;;;;;5819296;28;20053;-84
2023/08/07 07:47:06;;;;;;;0.43;0.35;;;;;;;;;;5817379;28;20435;-83
2023/08/07 07:50:08;;;;;;;1.13;0.63;;;;;;;;;;5819401;28;20046;-83
2023/08/07 07:52:59;;;;;;;0.55;0.55;;;;;;;;;;5841741;28;20053;-84
2023/08/07 07:55:50;;;;;;;0.40;0.30;;;;;;;;;;5840837;28;20416;-83
2023/08/07 07:58:41;;;;;;;0.60;0.45;;;;;;;;;;5841728;28;20129;-84
2023/08/07 08:01:31;;;;;;;0.47;0.35;;;;;;;;;;5841432;28;20125;-85
2023/08/07 08:04:22;;;;;;;1.27;0.22;;;;;;;;;;5841585;28;20049;-84
2023/08/07 08:07:13;;;;;;;0.70;0.50;;;;;;;;;;5841351;28;20120;-84
2023/08/07 08:10:08;;;;;;;0.55;0.40;;;;;;;;;;5841361;28;20053;-82
2023/08/07 08:12:59;;;;;;;0.20;0.20;;;;;;;;;;5840935;28;20041;-83
2023/08/07 08:15:50;;;;;;;1.17;0.40;;;;;;;;;;5840684;28;20060;-83
2023/08/07 08:18:41;;;;;;;0.10;0.10;;;;;;;;;;5841532;28;20050;-83
2023/08/07 08:21:32;;;;;;;0.50;0.50;;;;;;;;;;5843259;28;20046;-83
2023/08/07 08:24:23;;;;;;;1.42;0.50;;;;;;;;;;5846165;28;20045;-83
2023/08/07 08:27:13;;;;;;;1.73;1.10;;;;;;;;;;5845970;28;20056;-84
2023/08/07 08:30:05;;;;;;;1.52;0.60;;;;;;;;;;5846525;28;20503;-84
2023/08/07 08:32:56;;;;;;;2.92;1.05;;;;;;;;;;5846065;28;20048;-83
2023/08/07 08:35:47;;;;;;;1.00;0.90;;;;;;;;;;5845773;28;20084;-83
2023/08/07 08:38:38;;;;;;;1.10;0.90;;;;;;;;;;5845783;28;20509;-84
2023/08/07 08:41:30;;;;;;;0.30;0.30;;;;;;;;;;5845597;28;20045;-84
2023/08/07 08:44:24;;;;;;;0.50;0.50;;;;;;;;;;5844613;28;20053;-83
2023/08/07 08:47:16;;;;;;;0.32;0.32;;;;;;;;;;5843897;28;20052;-83
2023/08/07 08:50:13;;;;;;;0.50;0.50;;;;;;;;;;5844244;28;20049;-84
2023/08/07 08:53:04;;;;;;;0.50;0.50;;;;;;;;;;5845318;28;20042;-84
2023/08/07 08:55:55;;;;;;;0.40;0.38;;;;;;;;;;5844682;28;20431;-83
2023/08/07 08:58:46;;;;;;;1.35;1.05;;;;;;;;;;5845439;28;20065;-84
2023/08/07 09:01:37;;;;;;;0.30;0.30;;;;;;;;;;5843701;28;20042;-85
2023/08/07 09:04:29;;;;;;;1.45;0.52;;;;;;;;;;5845207;28;20038;-84
2023/08/07 09:07:21;;;;;;;0.75;0.75;;;;;;;;;;5845151;28;20050;-85
2023/08/07 09:10:13;;;;;;;0.20;0.20;;;;;;;;;;5845058;28;20060;-83
2023/08/07 09:13:08;;;;;;;1.45;0.60;;;;;;;;;;5845023;28;20049;-85
2023/08/07 09:16:01;;;;;;;0.55;0.47;;;;;;;;;;5844191;28;20525;-84
2023/08/07 09:18:54;;;;;;;0.40;0.40;;;;;;;;;;5820683;28;20047;-83
2023/08/07 09:21:45;;;;;;;2.08;1.13;;;;;;;;;;5822098;28;20359;-83
2023/08/07 09:24:36;;;;;;;0.35;0.35;;;;;;;;;;5821917;28;20042;-84
2023/08/07 09:27:27;;;;;;;3.28;0.30;;;;;;;;;;5820578;28;20048;-84
2023/08/07 09:30:18;;;;;;;0.30;0.30;;;;;;;;;;5820445;28;20046;-83
2023/08/07 09:33:10;;;;;;;0.40;0.40;;;;;;;;;;5820822;28;20044;-84
2023/08/07 09:36:01;;;;;;;0.43;0.30;;;;;;;;;;5821750;28;20060;-84
2023/08/07 09:38:52;;;;;;;0.32;0.32;;;;;;;;;;5821876;28;20042;-84
2023/08/07 09:41:43;;;;;;;0.75;0.50;;;;;;;;;;5821610;28;20350;-83
2023/08/07 09:44:37;;;;;;;1.55;0.55;;;;;;;;;;5821332;28;20043;-84
2023/08/07 09:47:29;;;;;;;0.32;0.32;;;;;;;;;;5819861;28;20117;-84
2023/08/07 09:50:22;;;;;;;0.82;0.60;;;;;;;;;;5821595;28;20571;-86
2023/08/07 09:53:12;;;;;;;0.52;0.52;;;;;;;;;;5821194;28;20050;-85
2023/08/07 09:56:03;;;;;;;1.88;0.80;;;;;;;;;;5821229;28;20616;-84
2023/08/07 09:58:55;;;;;;;1.98;0.85;;;;;;;;;;5820208;28;20383;-84
2023/08/07 10:01:46;;;;;;;5.43;1.70;;;;;;;;;;5820913;28;20181;-84
2023/08/07 10:04:37;;;;;;;0.60;0.60;;;;;;;;;;5820981;28;20498;-85
2023/08/07 10:07:28;;;;;;;1.80;1.27;;;;;;;;;;5819795;28;20042;-83
2023/08/07 10:10:19;;;;;;;10.40;1.85;;;;;;;;;;5821131;28;20058;-82
2023/08/07 10:13:13;;;;;;;2.78;1.20;;;;;;;;;;5819443;28;20116;-83
2023/08/07 10:16:07;;;;;;;1.67;1.13;;;;;;;;;;5820877;28;20050;-84
2023/08/07 10:18:58;;;;;;;4.32;1.55;;;;;;;;;;5821090;28;20140;-83
2023/08/07 10:21:50;;;;;;;0.68;0.68;;;;;;;;;;5820862;28;20117;-86
2023/08/07 10:24:43;;;;;;;0.73;0.52;;;;;;;;;;5818424;28;20065;-84
2023/08/07 10:27:39;;;;;;;0.20;0.20;;;;;;;;;;5819245;28;20137;-84
2023/08/07 10:30:32;;;;;;;0.75;0.75;;;;;;;;;;5820422;28;20046;-84
2023/08/07 10:33:24;;;;;;;0.68;0.43;;;;;;;;;;5819275;28;20065;-83
2023/08/07 10:36:18;;;;;;;0.30;0.30;;;;;;;;;;5819083;28;20066;-83
2023/08/07 10:39:11;;;;;;;0.15;0.15;;;;;;;;;;5820420;28;20038;-84
2023/08/07 10:42:04;;;;;;;0.10;0.10;;;;;;;;;;5820402;28;20043;-84
2023/08/07 10:45:01;;;;;;;0.10;0.10;;;;;;;;;;5820754;28;20540;-83
2023/08/07 10:48:09;;;;;;;1.17;0.95;;;;;;;;;;5843038;28;20124;-82
2023/08/07 10:51:04;;;;;;;0.30;0.30;;;;;;;;;;5841794;28;20405;-83
2023/08/07 10:53:56;;;;;;;1.42;0.73;;;;;;;;;;5834447;28;20117;-81
2023/08/07 10:56:54;;;;;;;1.25;0.40;;;;;;;;;;5842708;28;20060;-83
2023/08/07 10:59:59;;;;;;;0.50;0.50;;;;;;;;;;5841415;28;20042;-83
2023/08/07 11:02:50;;;;;;;1.20;0.80;;;;;;;;;;5842976;28;20042;-83
2023/08/07 11:05:42;;;;;;;0.45;0.43;;;;;;;;;;5842726;28;20542;-84
2023/08/07 11:08:33;;;;;;;1.27;0.65;;;;;;;;;;5842527;28;20473;-83
2023/08/07 11:11:24;;;;;;;1.48;0.70;;;;;;;;;;5841074;28;20046;-82
2023/08/07 11:14:19;;;;;;;0.17;0.17;;;;;;;;;;5842289;28;20050;-84
2023/08/07 11:17:10;;;;;;;1.00;0.63;;;;;;;;;;5840804;28;20052;-84
2023/08/07 11:20:02;;;;;;;0.55;0.38;;;;;;;;;;5841041;28;20050;-84
2023/08/07 11:22:55;;;;;;;0.73;0.30;;;;;;;;;;5841233;28;20064;-84
2023/08/07 11:25:46;;;;;;;0.52;0.52;;;;;;;;;;5842067;28;20501;-85
2023/08/07 11:28:36;;;;;;;0.82;0.55;;;;;;;;;;5842098;28;20038;-84
2023/08/07 11:31:27;;;;;;;0.30;0.30;;;;;;;;;;5841973;28;20050;-84
2023/08/07 11:34:19;;;;;;;0.52;0.30;;;;;;;;;;5841922;28;20647;-85
2023/08/07 11:37:16;;;;;;;1.58;0.85;;;;;;;;;;5841699;28;20042;-85
2023/08/07 11:40:08;;;;;;;0.80;0.55;;;;;;;;;;5841809;28;20128;-85
2023/08/07 11:42:59;;;;;;;2.33;0.63;;;;;;;;;;5842183;28;20132;-85
2023/08/07 11:45:50;;;;;;;1.00;0.55;;;;;;;;;;5841874;28;20041;-84
2023/08/07 11:48:43;;;;;;;1.83;0.50;;;;;;;;;;5840294;28;20125;-85
2023/08/07 11:51:35;;;;;;;5.18;0.60;;;;;;;;;;5839522;28;20148;-84
2023/08/07 11:54:26;;;;;;;2.20;0.85;;;;;;;;;;5839846;28;20392;-84
2023/08/07 11:57:20;;;;;;;2.30;0.63;;;;;;;;;;5841060;28;20044;-84
2023/08/07 12:00:13;;;;;;;2.05;0.50;;;;;;;;;;5840299;28;20119;-84
2023/08/07 12:03:31;;;;;;;1.17;0.60;;;;;;;;;;5840182;28;20046;-84
2023/08/07 12:06:24;;;;;;;0.40;0.40;;;;;;;;;;5840326;28;20061;-84
2023/08/07 12:09:15;;;;;;;0.20;0.20;;;;;;;;;;5840132;28;20133;-84
2023/08/07 12:12:07;;;;;;;0.38;0.38;;;;;;;;;;5841548;28;20049;-84
2023/08/07 12:14:57;;;;;;;0.70;0.60;;;;;;;;;;5840940;28;20508;-84
2023/08/07 12:17:48;;;;;;;0.40;0.30;;;;;;;;;;5841543;28;20493;-84
2023/08/07 12:20:40;;;;;;;7.30;0.68;;;;;;;;;;5840884;28;20045;-84
2023/08/07 12:23:34;;;;;;;8.80;0.65;;;;;;;;;;5824064;28;20072;-84
2023/08/07 12:26:25;;;;;;;0.55;0.55;;;;;;;;;;5839829;28;20056;-84
2023/08/07 12:29:15;;;;;;;0.95;0.45;;;;;;;;;;5838559;28;20053;-82
2023/08/07 12:32:07;;;;;;;0.75;0.73;;;;;;;;;;5841524;28;20042;-83
2023/08/07 12:34:57;;;;;;;0.47;0.47;;;;;;;;;;5842046;28;20052;-84
2023/08/07 12:37:51;;;;;;;0.80;0.50;;;;;;;;;;5841122;28;20050;-84
2023/08/07 12:40:42;;;;;;;1.17;0.60;;;;;;;;;;5841137;28;20049;-85
2023/08/07 12:43:34;;;;;;;1.30;0.50;;;;;;;;;;5840703;28;20034;-85
2023/08/07 12:46:24;;;;;;;1.08;0.82;;;;;;;;;;5839510;28;20053;-84
2023/08/07 12:49:19;;;;;;;0.90;0.57;;;;;;;;;;5840501;28;20386;-85
2023/08/07 12:52:09;;;;;;;0.50;0.50;;;;;;;;;;5841017;28;20373;-86
2023/08/07 12:55:01;;;;;;;0.95;0.40;;;;;;;;;;5841250;28;20058;-85
2023/08/07 12:57:53;;;;;;;0.60;0.57;;;;;;;;;;5839198;28;20064;-84
2023/08/07 13:00:44;;;;;;;1.40;0.60;;;;;;;;;;5839447;28;20042;-84
2023/08/07 13:03:34;;;;;;;0.77;0.77;;;;;;;;;;5840668;28;20142;-84
2023/08/07 13:06:25;;;;;;;0.35;0.30;;;;;;;;;;5839656;28;20092;-83
2023/08/07 13:09:16;;;;;;;1.25;0.68;;;;;;;;;;5843317;28;20123;-82
2023/08/07 13:12:07;;;;;;;1.63;0.60;;;;;;;;;;5844952;28;20042;-83
2023/08/07 13:14:58;;;;;;;1.80;0.52;;;;;;;;;;5845558;28;20074;-83
2023/08/07 13:17:48;;;;;;;4.30;1.25;;;;;;;;;;5844676;28;20092;-83
2023/08/07 13:20:39;;;;;;;0.80;0.38;;;;;;;;;;5844517;28;20501;-84
2023/08/07 13:23:30;;;;;;;0.80;0.70;;;;;;;;;;5844775;28;20096;-84
2023/08/07 13:26:21;;;;;;;0.50;0.50;;;;;;;;;;5844813;28;20046;-84
2023/08/07 13:29:12;;;;;;;2.67;1.35;;;;;;;;;;5844228;28;20049;-85
2023/08/07 13:32:09;;;;;;;2.33;1.77;;;;;;;;;;5844399;28;20096;-84
2023/08/07 13:35:00;;;;;;;3.28;1.63;;;;;;;;;;5844803;28;20056;-83
2023/08/07 13:37:50;;;;;;;1.02;0.93;;;;;;;;;;5844279;28;20088;-84
2023/08/07 13:40:43;;;;;;;1.10;1.00;;;;;;;;;;5844176;28;20060;-83
2023/08/07 13:43:34;;;;;;;1.55;0.90;;;;;;;;;;5843919;28;20042;-82
2023/08/07 13:46:26;;;;;;;1.05;0.77;;;;;;;;;;5843705;28;20049;-83
2023/08/07 13:49:17;;;;;;;2.47;1.10;;;;;;;;;;5842986;28;20054;-83
2023/08/07 13:52:08;;;;;;;1.38;0.88;;;;;;;;;;5842817;28;20056;-82
2023/08/07 13:54:59;;;;;;;3.90;1.60;;;;;;;;;;5843928;28;20181;-83
2023/08/07 13:57:50;;;;;;;1.42;1.13;;;;;;;;;;5843698;28;20042;-83
2023/08/07 14:00:41;;;;;;;0.80;0.80;;;;;;;;;;5843355;28;20045;-83
2023/08/07 14:03:32;;;;;;;2.15;1.65;;;;;;;;;;5858330;28;20048;-84
2023/08/07 14:06:23;;;;;;;1.08;1.02;;;;;;;;;;5843428;28;20100;-83
2023/08/07 14:09:14;;;;;;;3.38;1.50;;;;;;;;;;5843123;28;20673;-83
2023/08/07 14:12:05;;;;;;;1.23;1.13;;;;;;;;;;5842509;28;20484;-82
2023/08/07 14:14:56;;;;;;;2.50;1.83;;;;;;;;;;5843526;28;20065;-83
2023/08/07 14:17:47;;;;;;;1.63;1.13;;;;;;;;;;5842957;28;20046;-83
2023/08/07 14:20:38;;;;;;;2.05;1.67;;;;;;;;;;5842407;28;20042;-84
2023/08/07 14:23:49;;;;;;;3.25;1.23;;;;;;;;;;5842775;28;20394;-83
2023/08/07 14:26:40;;;;;;;0.70;0.63;;;;;;;;;;5843076;28;20060;-83
2023/08/07 14:29:31;;;;;;;0.82;0.82;;;;;;;;;;5842706;28;20397;-83
2023/08/07 14:32:22;;;;;;;0.70;0.70;;;;;;;;;;5841867;28;20046;-82
2023/08/07 14:35:13;;;;;;;1.60;1.00;;;;;;;;;;5843115;28;20053;-82
2023/08/07 14:38:04;;;;;;;2.72;1.35;;;;;;;;;;5842700;28;20493;-83
2023/08/07 14:40:56;;;;;;;1.83;0.50;;;;;;;;;;5843103;28;20053;-83
2023/08/07 14:43:47;;;;;;;1.05;0.88;;;;;;;;;;5842705;28;20133;-83
2023/08/07 14:46:38;;;;;;;1.13;1.00;;;;;;;;;;5842302;28;20196;-81
2023/08/07 14:49:29;;;;;;;2.85;1.85;;;;;;;;;;5842066;28;20515;-80
2023/08/07 14:52:19;;;;;;;2.53;1.98;;;;;;;;;;5842323;28;20050;-80
2023/08/07 14:55:10;;;;;;;6.15;1.50;;;;;;;;;;5842604;28;20050;-79
2023/08/07 14:58:01;;;;;;;6.05;1.98;;;;;;;;;;5842372;28;20488;-80
2023/08/07 15:00:56;;;;;;;2.42;1.35;;;;;;;;;;5841411;28;20042;-80
2023/08/07 15:03:46;;;;;;;0.75;0.75;;;;;;;;;;5842262;28;20050;-80
2023/08/07 15:06:37;;;;;;;3.80;0.85;;;;;;;;;;5841829;28;20070;-79
2023/08/07 15:09:28;;;;;;;1.20;1.10;;;;;;;;;;5841492;28;20042;-79
2023/08/07 15:12:19;;;;;;;2.25;1.38;;;;;;;;;;5841326;28;20412;-80
2023/08/07 15:15:10;;;;;;;2.47;1.08;;;;;;;;;;5842196;28;20056;-79
2023/08/07 15:18:03;;;;;;;1.58;1.33;;;;;;;;;;5842328;28;20358;-79
2023/08/07 15:20:54;;;;;;;1.35;0.82;;;;;;;;;;5841978;28;20038;-79
2023/08/07 15:23:45;;;;;;;1.15;1.05;;;;;;;;;;5841685;28;20061;-80
2023/08/07 15:26:36;;;;;;;2.05;0.93;;;;;;;;;;5840622;28;20040;-80
2023/08/07 15:29:27;;;;;;;3.25;0.85;;;;;;;;;;5841295;28;20059;-80
2023/08/07 15:32:20;;;;;;;0.98;0.73;;;;;;;;;;5840932;28;20053;-79
2023/08/07 15:35:11;;;;;;;1.58;0.70;;;;;;;;;;5842092;28;20086;-79
2023/08/07 15:38:02;;;;;;;3.00;1.98;;;;;;;;;;5841517;28;20385;-79
2023/08/07 15:40:53;;;;;;;1.05;0.80;;;;;;;;;;5842059;28;20515;-80
2023/08/07 15:43:44;;;;;;;3.25;1.05;;;;;;;;;;5841265;28;20152;-80
2023/08/07 15:46:35;;;;;;;2.15;0.90;;;;;;;;;;5841328;28;20050;-82
2023/08/07 15:49:27;;;;;;;1.33;1.00;;;;;;;;;;5840980;28;20038;-83
2023/08/07 15:52:18;;;;;;;4.05;1.80;;;;;;;;;;5841509;28;20050;-83
2023/08/07 15:55:09;;;;;;;1.50;1.15;;;;;;;;;;5841396;28;20116;-83
2023/08/07 15:58:00;;;;;;;2.20;0.77;;;;;;;;;;5841881;28;20054;-83
2023/08/07 16:00:50;;;;;;;0.80;0.75;;;;;;;;;;5826201;28;20039;-83
2023/08/07 16:03:41;;;;;;;2.70;1.48;;;;;;;;;;5818584;28;20513;-81
2023/08/07 16:06:32;;;;;;;0.88;0.65;;;;;;;;;;5818623;28;20050;-81
2023/08/07 16:09:24;;;;;;;0.75;0.60;;;;;;;;;;5818024;28;20050;-82
2023/08/07 16:12:17;;;;;;;1.80;1.35;;;;;;;;;;5835704;28;20493;-83
2023/08/07 16:15:08;;;;;;;2.25;1.00;;;;;;;;;;5835967;28;20441;-83
2023/08/07 16:17:59;;;;;;;0.68;0.50;;;;;;;;;;5841091;28;20408;-85
2023/08/07 16:20:50;;;;;;;0.82;0.80;;;;;;;;;;5853455;28;20117;-82
2023/08/07 16:23:41;;;;;;;1.38;0.93;;;;;;;;;;5840968;28;20054;-82
2023/08/07 16:26:32;;;;;;;1.35;0.80;;;;;;;;;;5841223;28;20042;-82
2023/08/07 16:29:23;;;;;;;1.02;0.88;;;;;;;;;;5841037;28;20053;-82
2023/08/07 16:32:13;;;;;;;0.80;0.80;;;;;;;;;;5840761;28;20136;-83
2023/08/07 16:35:05;;;;;;;1.85;1.08;;;;;;;;;;5841317;28;20417;-82
2023/08/07 16:37:56;;;;;;;1.63;0.82;;;;;;;;;;5841184;28;20061;-82
2023/08/07 16:40:47;;;;;;;1.95;1.27;;;;;;;;;;5840774;28;20118;-82
2023/08/07 16:43:38;;;;;;;0.70;0.70;;;;;;;;;;5844431;28;20053;-83
2023/08/07 16:46:29;;;;;;;2.08;1.35;;;;;;;;;;5840428;28;20042;-81
2023/08/07 16:49:23;;;;;;;0.90;0.38;;;;;;;;;;5845345;28;20037;-82
2023/08/07 16:52:13;;;;;;;1.27;0.77;;;;;;;;;;5844971;28;20523;-83
2023/08/07 16:55:05;;;;;;;1.90;1.02;;;;;;;;;;5845359;28;20041;-83
2023/08/07 16:57:56;;;;;;;1.50;1.02;;;;;;;;;;5845409;28;20493;-82
2023/08/07 17:00:47;;;;;;;1.58;0.90;;;;;;;;;;5844608;28;20045;-83
2023/08/07 17:03:38;;;;;;;1.63;1.15;;;;;;;;;;5843421;28;20053;-82
2023/08/07 17:06:29;;;;;;;1.13;0.80;;;;;;;;;;5845142;28;20069;-81
2023/08/07 17:09:22;;;;;;;3.40;1.67;;;;;;;;;;5844605;28;20050;-82